Apollon — SW3232 — position and weather

sailwx.info

Track history (hours):
 
Tides and Currents Weather Stations Pressure Air Temp Water Temp Dewpoint Dewpoint Depression Visibility Wind Speed Wind Dir Waves Ship Positions

Apollon

Last reported at 2017-Dec-09 05:33 UTC. Time now 2018-Feb-19 17:56 UTC.
Position N 37°54' E 023°39'.
Warning: this ship's position is months out of date.

Length 24 m; draft 3.2 m.

Type: Fishing. MMSI: 240230000.

Date/timePositionNaut miles runAvg speedWind from/ knotsBaromVisibWave heightAir tempDewpointWater temp
2017-Dec-09 05:33N 37°54' E 023°39'0 4.3
2017-Dec-09 05:30N 37°54' E 023°39'2 3.4
2017-Dec-09 05:00N 37°53' E 023°41'0 0.2
2017-Dec-09 04:28N 37°53' E 023°41'0 0.6
2017-Dec-09 03:58N 37°53' E 023°40'0 0.4
2017-Dec-09 03:28N 37°53' E 023°40'0 0.6
2017-Dec-09 02:58N 37°53' E 023°40'0 0.2
2017-Dec-09 02:28N 37°53' E 023°40'0 0.0
2017-Dec-09 01:58N 37°53' E 023°40'0 0.2
2017-Dec-09 01:30N 37°53' E 023°39'0 0.0
2017-Dec-09 01:00N 37°53' E 023°39'0 0.3
2017-Dec-09 00:27N 37°54' E 023°39'0 0.2
2017-Dec-08 23:56N 37°54' E 023°39'2 3.6
2017-Dec-08 23:30N 37°55' E 023°38'2 2.9
2017-Dec-08 22:59N 37°54' E 023°39'0 0.3
2017-Dec-08 22:25N 37°54' E 023°39'1 2.6
2017-Dec-08 22:00N 37°54' E 023°40'1 1.3
2017-Dec-08 21:28N 37°55' E 023°41'0 0.9
2017-Dec-08 20:59N 37°55' E 023°40'0 0.8
2017-Dec-08 20:29N 37°55' E 023°40'0 0.7
2017-Dec-08 19:59N 37°55' E 023°39'0 0.4
2017-Dec-08 19:28N 37°55' E 023°39'0 0.2
2017-Dec-08 18:58N 37°55' E 023°39'0 0.4
2017-Dec-08 18:30N 37°55' E 023°39'2 3.8
2017-Dec-08 17:59N 37°53' E 023°39'0 0.6
2017-Dec-08 17:30N 37°54' E 023°39'2 5.0
2017-Dec-08 17:00N 37°55' E 023°37'4 7.0
2017-Dec-08 16:30N 37°57' E 023°33'1 0.1
2017-Dec-08 06:52N 37°57' E 023°32'2 4.5
2017-Dec-08 06:31N 37°57' E 023°34'2 4.1
2017-Dec-08 05:59N 37°57' E 023°37'0 0.0
2017-Dec-08 05:24N 37°57' E 023°37'0 0.0
2017-Dec-08 05:00N 37°57' E 023°37'0 0.0
2017-Dec-08 04:30N 37°57' E 023°37'0 0.0
2017-Dec-08 03:58N 37°57' E 023°37'0 0.0
2017-Dec-08 03:28N 37°57' E 023°37'0 0.0
2017-Dec-08 02:59N 37°57' E 023°37'0 0.0
2017-Dec-08 02:25N 37°57' E 023°37'0 0.0
2017-Dec-08 02:00N 37°57' E 023°37'0 0.0
2017-Dec-08 01:28N 37°57' E 023°37'0 0.0
2017-Dec-08 00:52N 37°57' E 023°37'0 0.0
2017-Dec-08 00:30N 37°57' E 023°37'3 5.0
2017-Dec-08 00:00N 37°55' E 023°38'3 4.9
2017-Dec-07 23:28N 37°53' E 023°40'0 0.6
2017-Dec-07 22:58N 37°53' E 023°40'0 0.1
2017-Dec-07 22:28N 37°53' E 023°40'0 0.2
2017-Dec-07 21:58N 37°53' E 023°39'0 0.0
2017-Dec-07 21:29N 37°53' E 023°39'0 0.4
2017-Dec-07 20:59N 37°53' E 023°39'0 0.4
2017-Dec-07 20:29N 37°54' E 023°39'1 2.2
2017-Dec-07 19:59N 37°54' E 023°40'0 0.4
2017-Dec-07 19:30N 37°54' E 023°40'0 0.4
2017-Dec-07 18:58N 37°54' E 023°40'0 0.5
2017-Dec-07 18:30N 37°54' E 023°40'0 0.5
2017-Dec-07 17:59N 37°54' E 023°39'1 2.4
2017-Dec-07 17:30N 37°53' E 023°39'0 0.4
2017-Dec-07 17:00N 37°53' E 023°39'0 0.2
2017-Dec-07 16:31N 37°53' E 023°39'4 7.7
2017-Dec-07 16:01N 37°56' E 023°36'3 6.7
2017-Dec-07 15:30N 37°57' E 023°32'0 0.0
2017-Dec-07 06:26N 37°57' E 023°32'2 5.6
2017-Dec-07 06:00N 37°57' E 023°35'1 2.6
2017-Dec-07 05:29N 37°57' E 023°37'0 0.0
2017-Dec-07 04:59N 37°57' E 023°37'0 0.0
2017-Dec-07 04:29N 37°57' E 023°37'0 0.0
2017-Dec-07 03:59N 37°57' E 023°37'0 0.0
2017-Dec-07 03:26N 37°57' E 023°37'0 0.0
2017-Dec-07 03:00N 37°57' E 023°37'0 0.0
2017-Dec-07 02:30N 37°57' E 023°37'0 0.0
2017-Dec-07 01:58N 37°57' E 023°37'0 0.0
2017-Dec-07 01:30N 37°57' E 023°37'2 4.1
2017-Dec-07 01:00N 37°55' E 023°37'3 5.7
2017-Dec-07 00:30N 37°53' E 023°40'0 0.3
2017-Dec-06 23:58N 37°53' E 023°39'0 0.2
2017-Dec-06 23:26N 37°53' E 023°39'0 0.2
2017-Dec-06 22:55N 37°53' E 023°39'0 0.1
2017-Dec-06 22:29N 37°53' E 023°39'0 0.2
2017-Dec-06 22:00N 37°54' E 023°39'0 0.4
2017-Dec-06 21:26N 37°54' E 023°39'1 1.2
2017-Dec-06 21:01N 37°53' E 023°39'  
2017-Dec-04 07:11N 37°57' E 023°32'0 0.0
2017-Dec-04 06:56N 37°57' E 023°32'3 6.7
2017-Dec-04 06:30N 37°57' E 023°36'1 1.9
2017-Dec-04 06:00N 37°57' E 023°37'0 0.0
2017-Dec-04 05:30N 37°57' E 023°37'0 0.0
2017-Dec-04 04:56N 37°57' E 023°37'2 4.6
2017-Dec-04 04:30N 37°56' E 023°37'1 1.2
2017-Dec-04 03:58N 37°55' E 023°38'0 0.2
2017-Dec-04 03:29N 37°55' E 023°38'0 0.1
2017-Dec-04 02:55N 37°55' E 023°38'0 0.3
2017-Dec-04 02:30N 37°55' E 023°38'0 0.2
2017-Dec-04 01:59N 37°55' E 023°38'0 0.4
2017-Dec-04 01:28N 37°55' E 023°38'0 0.8
2017-Dec-04 01:00N 37°55' E 023°38'0 0.7
2017-Dec-04 00:30N 37°55' E 023°39'0 0.2
2017-Dec-03 23:54N 37°55' E 023°39'0 0.4
2017-Dec-03 23:27N 37°55' E 023°38'0 0.8
2017-Dec-03 23:00N 37°55' E 023°38'2 3.0
2017-Dec-03 22:24N 37°56' E 023°40'0 0.0
2017-Dec-03 21:58N 37°56' E 023°40'0 0.0
2017-Dec-03 21:28N 37°56' E 023°40'0 0.0
2017-Dec-03 21:00N 37°56' E 023°40'0 0.0
2017-Dec-03 20:28N 37°56' E 023°40'0 0.0
2017-Dec-03 20:00N 37°56' E 023°40'0 0.0
2017-Dec-03 19:29N 37°56' E 023°40'0 0.0
2017-Dec-03 18:58N 37°56' E 023°40'0 0.0
2017-Dec-03 18:28N 37°56' E 023°40'0 0.0
2017-Dec-03 17:54N 37°56' E 023°40'0 0.1
2017-Dec-03 17:30N 37°56' E 023°40'0 0.0
2017-Dec-03 17:00N 37°56' E 023°40'2 3.5
2017-Dec-03 16:30N 37°55' E 023°38'1 1.3
2017-Dec-03 16:01N 37°54' E 023°38'2 4.5
2017-Dec-03 15:30N 37°56' E 023°37'3 6.9
2017-Dec-03 15:00N 37°58' E 023°33'  
2017-Nov-29 10:18N 37°57' E 023°32'1 4.6
2017-Nov-29 10:00N 37°57' E 023°34'2 4.0
2017-Nov-29 09:25N 37°57' E 023°37'0 0.0
2017-Nov-29 08:54N 37°57' E 023°37'0 0.0
2017-Nov-29 08:30N 37°57' E 023°37'0 0.0
2017-Nov-29 07:59N 37°57' E 023°37'1 2.1
2017-Nov-29 07:30N 37°57' E 023°36'3 6.7
2017-Nov-29 07:01N 37°55' E 023°39'1 1.8
2017-Nov-29 06:30N 37°54' E 023°40'0 0.7
2017-Nov-29 06:00N 37°55' E 023°40'  
Track history (hours):
 
Tides and Currents Weather Stations Pressure Air Temp Water Temp Dewpoint Dewpoint Depression Visibility Wind Speed Wind Dir Waves Ship Positions

Apollon

Last reported at 2017-Dec-09 05:33 UTC. Time now 2018-Feb-19 17:56 UTC.
Position N 37°54' E 023°39'.
Warning: this ship's position is months out of date.

Length 24 m; draft 3.2 m.

Type: Fishing. MMSI: 240230000.

Date/timePositionNaut miles runAvg speedWind from/ knotsBaromVisibWave heightAir tempDewpointWater temp
2017-Dec-09 05:33N 37°54' E 023°39'0 4.3
2017-Dec-09 05:30N 37°54' E 023°39'2 3.4
2017-Dec-09 05:00N 37°53' E 023°41'0 0.2
2017-Dec-09 04:28N 37°53' E 023°41'0 0.6
2017-Dec-09 03:58N 37°53' E 023°40'0 0.4
2017-Dec-09 03:28N 37°53' E 023°40'0 0.6
2017-Dec-09 02:58N 37°53' E 023°40'0 0.2
2017-Dec-09 02:28N 37°53' E 023°40'0 0.0
2017-Dec-09 01:58N 37°53' E 023°40'0 0.2
2017-Dec-09 01:30N 37°53' E 023°39'0 0.0
2017-Dec-09 01:00N 37°53' E 023°39'0 0.3
2017-Dec-09 00:27N 37°54' E 023°39'0 0.2
2017-Dec-08 23:56N 37°54' E 023°39'2 3.6
2017-Dec-08 23:30N 37°55' E 023°38'2 2.9
2017-Dec-08 22:59N 37°54' E 023°39'0 0.3
2017-Dec-08 22:25N 37°54' E 023°39'1 2.6
2017-Dec-08 22:00N 37°54' E 023°40'1 1.3
2017-Dec-08 21:28N 37°55' E 023°41'0 0.9
2017-Dec-08 20:59N 37°55' E 023°40'0 0.8
2017-Dec-08 20:29N 37°55' E 023°40'0 0.7
2017-Dec-08 19:59N 37°55' E 023°39'0 0.4
2017-Dec-08 19:28N 37°55' E 023°39'0 0.2
2017-Dec-08 18:58N 37°55' E 023°39'0 0.4
2017-Dec-08 18:30N 37°55' E 023°39'2 3.8
2017-Dec-08 17:59N 37°53' E 023°39'0 0.6
2017-Dec-08 17:30N 37°54' E 023°39'2 5.0
2017-Dec-08 17:00N 37°55' E 023°37'4 7.0
2017-Dec-08 16:30N 37°57' E 023°33'1 0.1
2017-Dec-08 06:52N 37°57' E 023°32'2 4.5
2017-Dec-08 06:31N 37°57' E 023°34'2 4.1
2017-Dec-08 05:59N 37°57' E 023°37'0 0.0
2017-Dec-08 05:24N 37°57' E 023°37'0 0.0
2017-Dec-08 05:00N 37°57' E 023°37'0 0.0
2017-Dec-08 04:30N 37°57' E 023°37'0 0.0
2017-Dec-08 03:58N 37°57' E 023°37'0 0.0
2017-Dec-08 03:28N 37°57' E 023°37'0 0.0
2017-Dec-08 02:59N 37°57' E 023°37'0 0.0
2017-Dec-08 02:25N 37°57' E 023°37'0 0.0
2017-Dec-08 02:00N 37°57' E 023°37'0 0.0
2017-Dec-08 01:28N 37°57' E 023°37'0 0.0
2017-Dec-08 00:52N 37°57' E 023°37'0 0.0
2017-Dec-08 00:30N 37°57' E 023°37'3 5.0
2017-Dec-08 00:00N 37°55' E 023°38'3 4.9
2017-Dec-07 23:28N 37°53' E 023°40'0 0.6
2017-Dec-07 22:58N 37°53' E 023°40'0 0.1
2017-Dec-07 22:28N 37°53' E 023°40'0 0.2
2017-Dec-07 21:58N 37°53' E 023°39'0 0.0
2017-Dec-07 21:29N 37°53' E 023°39'0 0.4
2017-Dec-07 20:59N 37°53' E 023°39'0 0.4
2017-Dec-07 20:29N 37°54' E 023°39'1 2.2
2017-Dec-07 19:59N 37°54' E 023°40'0 0.4
2017-Dec-07 19:30N 37°54' E 023°40'0 0.4
2017-Dec-07 18:58N 37°54' E 023°40'0 0.5
2017-Dec-07 18:30N 37°54' E 023°40'0 0.5
2017-Dec-07 17:59N 37°54' E 023°39'1 2.4
2017-Dec-07 17:30N 37°53' E 023°39'0 0.4
2017-Dec-07 17:00N 37°53' E 023°39'0 0.2
2017-Dec-07 16:31N 37°53' E 023°39'4 7.7
2017-Dec-07 16:01N 37°56' E 023°36'3 6.7
2017-Dec-07 15:30N 37°57' E 023°32'0 0.0
2017-Dec-07 06:26N 37°57' E 023°32'2 5.6
2017-Dec-07 06:00N 37°57' E 023°35'1 2.6
2017-Dec-07 05:29N 37°57' E 023°37'0 0.0
2017-Dec-07 04:59N 37°57' E 023°37'0 0.0
2017-Dec-07 04:29N 37°57' E 023°37'0 0.0
2017-Dec-07 03:59N 37°57' E 023°37'0 0.0
2017-Dec-07 03:26N 37°57' E 023°37'0 0.0
2017-Dec-07 03:00N 37°57' E 023°37'0 0.0
2017-Dec-07 02:30N 37°57' E 023°37'0 0.0
2017-Dec-07 01:58N 37°57' E 023°37'0 0.0
2017-Dec-07 01:30N 37°57' E 023°37'2 4.1
2017-Dec-07 01:00N 37°55' E 023°37'3 5.7
2017-Dec-07 00:30N 37°53' E 023°40'0 0.3
2017-Dec-06 23:58N 37°53' E 023°39'0 0.2
2017-Dec-06 23:26N 37°53' E 023°39'0 0.2
2017-Dec-06 22:55N 37°53' E 023°39'0 0.1
2017-Dec-06 22:29N 37°53' E 023°39'0 0.2
2017-Dec-06 22:00N 37°54' E 023°39'0 0.4
2017-Dec-06 21:26N 37°54' E 023°39'1 1.2
2017-Dec-06 21:01N 37°53' E 023°39'  
2017-Dec-04 07:11N 37°57' E 023°32'0 0.0
2017-Dec-04 06:56N 37°57' E 023°32'3 6.7
2017-Dec-04 06:30N 37°57' E 023°36'1 1.9
2017-Dec-04 06:00N 37°57' E 023°37'0 0.0
2017-Dec-04 05:30N 37°57' E 023°37'0 0.0
2017-Dec-04 04:56N 37°57' E 023°37'2 4.6
2017-Dec-04 04:30N 37°56' E 023°37'1 1.2
2017-Dec-04 03:58N 37°55' E 023°38'0 0.2
2017-Dec-04 03:29N 37°55' E 023°38'0 0.1
2017-Dec-04 02:55N 37°55' E 023°38'0 0.3
2017-Dec-04 02:30N 37°55' E 023°38'0 0.2
2017-Dec-04 01:59N 37°55' E 023°38'0 0.4
2017-Dec-04 01:28N 37°55' E 023°38'0 0.8
2017-Dec-04 01:00N 37°55' E 023°38'0 0.7
2017-Dec-04 00:30N 37°55' E 023°39'0 0.2
2017-Dec-03 23:54N 37°55' E 023°39'0 0.4
2017-Dec-03 23:27N 37°55' E 023°38'0 0.8
2017-Dec-03 23:00N 37°55' E 023°38'2 3.0
2017-Dec-03 22:24N 37°56' E 023°40'0 0.0
2017-Dec-03 21:58N 37°56' E 023°40'0 0.0
2017-Dec-03 21:28N 37°56' E 023°40'0 0.0
2017-Dec-03 21:00N 37°56' E 023°40'0 0.0
2017-Dec-03 20:28N 37°56' E 023°40'0 0.0
2017-Dec-03 20:00N 37°56' E 023°40'0 0.0
2017-Dec-03 19:29N 37°56' E 023°40'0 0.0
2017-Dec-03 18:58N 37°56' E 023°40'0 0.0
2017-Dec-03 18:28N 37°56' E 023°40'0 0.0
2017-Dec-03 17:54N 37°56' E 023°40'0 0.1
2017-Dec-03 17:30N 37°56' E 023°40'0 0.0
2017-Dec-03 17:00N 37°56' E 023°40'2 3.5
2017-Dec-03 16:30N 37°55' E 023°38'1 1.3
2017-Dec-03 16:01N 37°54' E 023°38'2 4.5
2017-Dec-03 15:30N 37°56' E 023°37'3 6.9
2017-Dec-03 15:00N 37°58' E 023°33'  
2017-Nov-29 10:18N 37°57' E 023°32'1 4.6
2017-Nov-29 10:00N 37°57' E 023°34'2 4.0
2017-Nov-29 09:25N 37°57' E 023°37'0 0.0
2017-Nov-29 08:54N 37°57' E 023°37'0 0.0
2017-Nov-29 08:30N 37°57' E 023°37'0 0.0
2017-Nov-29 07:59N 37°57' E 023°37'1 2.1
2017-Nov-29 07:30N 37°57' E 023°36'3 6.7
2017-Nov-29 07:01N 37°55' E 023°39'1 1.8
2017-Nov-29 06:30N 37°54' E 023°40'0 0.7
2017-Nov-29 06:00N 37°55' E 023°40'  

Dump ship's entire track history